x

9442396 - La Push, Wa (lapw1) Weather Station

3:36 - Thu 23rd Oct 2014 All times are PDT. -7 hours from GMT.

  • Wind
    6mph, 9mph gusts
  • Sea Temp 52°f
  • Air Temp 53°f
  • Sea Pressure 1003.4mb
  • 9442396 - La Push, Wa
  • 9442396 - La Push, Wa

More Historic Weather Station data

Upgrade to MSW Pro to gain access to the past 30 days of data for over 8000 Wavebouys and Weather Stations around the globe.

Join Pro

Comparision Forecast

View Surf forecast
   
jeu. 10/23 3:36 6 9 mph 1003.4mb 52f 53f
3:30 5 7 mph 1003.3mb 52f 53f
3:24 6 9 mph 1003.4mb 52f 52f
3:18 5 7 mph 1003.3mb 52f 52f
3:12 6 7 mph 1003.3mb 52f 52f
3:06 6 8 mph 1003.3mb 52f 51f
3:00 7 8 mph 1003.3mb 52f 52f
2:36 2 3 mph 1003.6mb 52f 53f
2:30 2 5 mph 1003.6mb 52f 54f
2:24 2 5 mph 1003.6mb 52f 54f
2:18 1 3 mph 1003.6mb 52f 55f
2:12 2 6 mph 1003.7mb 52f 56f
2:06 2 10 mph 1003.8mb 52f 57f
2:00 8 11 mph 1003.8mb 52f 57f
1:36 11 15 mph 1003.8mb 53f 56f
1:30 10 14 mph 1003.7mb 53f 57f
1:24 11 17 mph 1003.7mb 53f 57f
1:18 15 20 mph 1003.7mb 53f 57f
1:12 13 17 mph 1003.7mb 53f 57f
1:06 9 16 mph 1003.7mb 53f 57f
1:00 13 17 mph 1003.8mb 53f 57f
12:36 9 13 mph 1003.6mb 53f 57f
12:30 10 13 mph 1003.4mb 53f 57f
12:24 8 13 mph 1003.4mb 53f 57f
12:18 9 14 mph 1003.3mb 53f 57f
12:12 8 14 mph 1003.4mb 53f 57f
12:06 9 13 mph 1003.4mb 53f 57f
12:00 10 14 mph 1003.3mb 53f 57f
mer. 10/22 11:36 13 16 mph 1003.1mb 53f 57f
11:30 14 18 mph 1003.1mb 53f 56f
11:24 14 20 mph 1003mb 53f 56f
11:18 15 18 mph 1002.9mb 53f 56f
11:12 15 18 mph 1002.8mb 53f 56f
11:06 13 16 mph 1002.7mb 53f 56f
11:00 11 14 mph 1002.6mb 53f 56f
10:36 7 13 mph 1002.2mb 53f 52f
10:30 11 15 mph 1002.1mb 53f 51f
10:24 11 17 mph 1002mb 53f 50f
10:18 14 36 mph 1001.8mb 53f 55f
10:12 18 25 mph 1001.8mb 53f 56f
10:06 14 20 mph 1001.3mb 53f 55f
10:00 14 18 mph 1001.3mb 53f 55f
9:36 7 10 mph 1001.1mb 53f 54f
9:30 5 7 mph 1001.1mb 53f 53f
9:24 5 7 mph 1001mb 53f 53f
9:18 5 7 mph 1000.9mb 53f 53f
9:12 6 7 mph 1000.9mb 53f 53f
9:06 5 6 mph 1000.9mb 53f 52f
9:00 5 7 mph 1000.8mb 53f 52f
8:36  -  2 mph 1000.3mb 53f 51f
8:30 1 2 mph 1000.2mb 53f 51f
8:24 1 3 mph 1000.2mb 53f 51f
8:18 5 7 mph 1000.2mb 53f 52f
8:12 6 15 mph 1000.2mb 53f 51f
8:06 13 26 mph 1000.6mb 53f 53f
8:00 15 28 mph 1001mb 53f 55f
7:36 6
mph
999.6mb 53f 55f
7:30 3 6 mph 999.5mb 53f 54f
7:24 5 8 mph 999.6mb 53f 54f
7:18 6 8 mph 999.5mb 53f 54f
7:12 7 9 mph 999.4mb 53f 54f
7:06 7 9 mph 999.4mb 53f 54f
7:00 7 11 mph 999.4mb 53f 54f
6:36 9 21 mph 998.5mb 53f 54f
6:30 6 9 mph 998.6mb 53f 53f
6:24 3 6 mph 998.6mb 53f 53f
6:18 2 3 mph 998.6mb 53f 54f
6:12 2 3 mph 998.5mb 53f 54f
6:06 3 5 mph 998.5mb 53f 54f
6:00 3 6 mph 998.5mb 53f 54f
5:36 3 5 mph 998.8mb 53f 54f
5:30 2 5 mph 998.7mb 53f 54f
5:24  -  6 mph 998.6mb 53f 54f
5:18 2 5 mph 998.6mb 53f 54f
5:12 2 5 mph 998.7mb 53f 55f
5:06 2 3 mph 998.9mb 53f 55f
5:00 2 6 mph 999.1mb 53f 55f
4:36 5 9 mph 998.9mb 53f 55f
4:30 6 9 mph 999.2mb 53f 55f
4:24 6 9 mph 999.4mb 53f 55f
4:18 8 11 mph 999.4mb 53f 55f
4:12 6 10 mph 999.8mb 53f 55f
4:06 6 8 mph 999.8mb 53f 55f
4:00 7 13 mph 999.9mb 53f 56f
3:36 5 7 mph 1000.3mb 53f 56f
3:30 6 8 mph 1000.3mb 53f 56f
3:24 6 9 mph 1000.2mb 53f 57f
3:18 5 7 mph 1000.3mb 53f 57f
3:12 3 5 mph 1000.4mb 53f 57f
3:06 3 6 mph 1000.6mb 53f 57f
3:00 3 5 mph 1000.6mb 53f 57f
2:36 5 9 mph 1001.2mb 53f 57f
2:30 6 9 mph 1001.3mb 53f 57f
2:24 5 8 mph 1001.4mb 53f 58f
2:18 6 10 mph 1001.5mb 53f 57f
2:12 5 8 mph 1001.6mb 53f 57f
2:06 3 8 mph 1001.8mb 53f 57f
2:00 3 8 mph 1001.8mb 53f 57f
1:36 6 10 mph 1002.5mb 53f 57f
1:30 5 10 mph 1002.4mb 53f 57f
1:24 8 14 mph 1002.4mb 53f 57f
1:18 5 9 mph 1002.7mb 53f 57f
1:12 6 13 mph 1002.5mb 53f 56f
1:06 7 9 mph 1002.7mb 53f 56f
1:00 7 10 mph 1003mb 53f 56f
12:36 5 9 mph 1003.2mb 53f 56f
12:30 6 9 mph 1003.4mb 53f 56f
12:24 5 9 mph 1003.3mb 53f 56f
12:18 6 9 mph 1003.2mb 53f 56f
12:12 6 9 mph 1003.1mb 53f 56f
12:06 7 15 mph 1003.2mb 53f 56f
12:00 8 15 mph 1003.6mb 53f 56f
11:36 5 7 mph 1003.3mb 53f 56f
11:30 3 10 mph 1003.5mb 53f 56f
11:24 5 11 mph 1003.7mb 53f 56f
11:18 6 11 mph 1003.7mb 53f 56f
11:12 6 11 mph 1003.6mb 53f 55f
11:06 6 9 mph 1003.6mb 53f 55f
11:00 6 8 mph 1003.7mb 53f 55f
10:36 6 7 mph 1003.6mb 53f 53f
10:30 3 6 mph 1003.5mb 53f 53f
10:24 6 8 mph 1003.5mb 53f 53f
10:18 3 6 mph 1003.4mb 53f 52f
10:12 5 6 mph 1003.5mb 53f 52f
10:06 5 6 mph 1003.5mb 53f 52f
10:00 5 6 mph 1003.5mb 53f 52f
9:36 3 8 mph 1003.6mb 53f 51f
9:30 5 8 mph 1003.4mb 53f 51f
9:24 6 9 mph 1003.3mb 54f 51f
9:18 7 9 mph 1003.4mb 54f 52f
9:12 6 9 mph 1003.3mb 54f 52f
9:06 3 8 mph 1003.4mb 54f 52f
9:00 6 7 mph 1003.5mb 54f 51f
8:36 6 7 mph 1003.3mb 54f 51f
8:30 5 6 mph 1003.1mb 54f 51f
8:24 5 7 mph 1003.2mb 54f 51f
8:18 6 8 mph 1003.2mb 54f 51f
8:12 6 7 mph 1003.3mb 54f 51f
8:06 6 7 mph 1003.2mb 54f 51f
8:00 6 7 mph 1003.2mb 54f 51f
7:36 6 7 mph 1002.9mb 54f 51f
7:30 6
mph
1003.1mb 54f 52f
7:24 5 6 mph 1003.1mb 54f 52f
7:18 5 6 mph 1003.1mb 54f 52f
7:12 5 6 mph 1003.1mb 54f 52f
7:06 6 7 mph 1003.1mb 54f 52f
7:00 5
mph
1003.1mb 54f 52f
6:36 2
mph
1002.9mb 54f 56f
6:30 1 3 mph 1002.9mb 54f 57f
6:24 3 8 mph 1002.9mb 54f 57f
6:18 6 7 mph 1002.8mb 54f 58f
6:12 6 9 mph 1002.8mb 54f 57f
6:06 6 9 mph 1002.7mb 54f 57f
6:00 7 10 mph 1002.6mb 54f 57f
5:36 8 11 mph 1002.4mb 54f 57f
5:30 9 13 mph 1002.4mb 54f 57f
5:24 9 13 mph 1002.4mb 54f 57f
5:18 9 10 mph 1002.3mb 54f 57f
5:12 8 11 mph 1002.2mb 54f 57f
5:06 10 15 mph 1002.1mb 54f 57f
5:00 11 15 mph 1002mb 54f 57f
4:36 9 14 mph 1001.3mb 54f 58f
4:30 14 16 mph 1001.4mb 54f 58f
4:24 14 17 mph 1001.2mb 54f 58f
4:18 11 15 mph 1001.5mb 54f 58f
4:12 10 14 mph 1001.4mb 54f 58f
4:06 9 13 mph 1001.4mb 54f 58f
4:00 10 14 mph 1001.3mb 54f 58f
3:54 14 16 mph 1001.2mb 54f 58f
3:48 13 17 mph 1001.2mb 54f 58f
3:36 14 17 mph 1000.8mb 54f 58f
3:30 15 17 mph 1000.9mb 54f 58f
3:24 13 15 mph 1000.8mb 54f 58f
3:18 11 14 mph 1000.6mb 54f 58f
3:12 14 18 mph 1000.5mb 54f 58f
3:06 15 17 mph 1000.4mb 54f 58f
3:00 13 18 mph 999.8mb 54f 58f
2:54 16 21 mph 1000mb 54f 58f
2:48 16 25 mph 999.9mb 55f 58f
2:36 25 33 mph 999.3mb 55f 59f
2:30 22 29 mph 999.2mb 55f 59f
2:24 16 24 mph 999.3mb 55f 58f
2:18 20 30 mph 999.4mb 55f 57f
2:12 18 31 mph 999.6mb 55f 56f
2:06 25 34 mph 999.7mb 55f 58f
2:00 23 39 mph 999.4mb 55f 57f
1:54 24 49 mph 999.2mb 56f 57f
1:48 22 40 mph 999.1mb 56f 57f
1:36 24 39 mph 999.8mb 57f 56f
1:30 18 30 mph 999.5mb 57f 56f
1:24 22 36 mph 999.7mb 57f 56f
1:18 20 31 mph 999.6mb 58f 55f
1:12 22 39 mph 999.7mb 58f 55f
1:06 20 32 mph 999.5mb 58f 55f
1:00 21 36 mph 999.5mb 58f 55f
12:54 21 33 mph 999.6mb 58f 55f
12:48 24 39 mph 999.7mb 58f 55f
12:36 22 36 mph 999.7mb 58f 55f
12:30 22 44 mph 999.6mb 58f 55f
12:24 24 39 mph 999.5mb 58f 55f
12:18 21 37 mph 999.6mb 58f 55f
12:12 28 44 mph 999.6mb 58f 55f
12:06 22 36 mph 999.7mb 58f 55f
12:00 24 37 mph 999.8mb 58f 56f
mar. 10/21 11:54 18 44 mph 1000mb 58f 55f
11:48 25 37 mph 999.9mb 58f 55f
11:36 22 44 mph 1000mb 58f 55f
11:30 28 39 mph 999.9mb 58f 55f
11:24 22 37 mph 1000.1mb 58f 55f
11:18 20 37 mph 1000.1mb 58f 55f
11:12 21 33 mph 1000.2mb 58f 56f
11:06 26 41 mph 1000.2mb 58f 55f
11:00 24 45 mph 1000.3mb 58f 56f
10:54 26 47 mph 1000.4mb 58f 56f
10:48 24 37 mph 1000.6mb 58f 55f
10:36 22 39 mph 1000.9mb 58f 56f
10:30 22 38 mph 1000.9mb 58f 56f
10:24 24 41 mph 1001.1mb 57f 56f
10:18 26 43 mph 1001.2mb 57f 56f
10:12 20 44 mph 1001.2mb 57f 56f
10:06 26 44 mph 1001.2mb 57f 56f
10:00 29 40 mph 1001.2mb 56f 56f
9:54 21 41 mph 1001.4mb 56f 56f
9:48 25 46 mph 1001.5mb 56f 56f
9:36 28 45 mph 1001.8mb 54f 56f
9:30 23 39 mph 1001.8mb 54f 56f
9:24 23 43 mph 1001.9mb 54f 56f
9:18 24 40 mph 1002mb 54f 56f
9:12 29 44 mph 1002.2mb 54f 56f
9:06 26 46 mph 1002.2mb 54f 56f
9:00 28 45 mph 1002.2mb 54f 57f
8:54 23 34 mph 1002.3mb 54f 57f
8:48 28 41 mph 1002.5mb 54f 57f
8:36 28 41 mph 1002.7mb 54f 57f
8:30 25 41 mph 1002.8mb 54f 57f
8:24 18 36 mph 1002.9mb 54f 58f
8:18 22 39 mph 1003.1mb 54f 58f
8:12 24 34 mph 1003.2mb 54f 58f
8:06 22 40 mph 1003.3mb 54f 58f
8:00 23 38 mph 1003.4mb 54f 58f
7:54 20 33 mph 1003.6mb 54f 58f
7:48 22 33 mph 1003.8mb 54f 58f
7:36 23 37 mph 1004mb 54f 59f
7:30 24 34 mph 1004.1mb 54f 59f
7:24 24 34 mph 1004.1mb 54f 58f
7:18 18 31 mph 1004.3mb 54f 59f
7:12 21 34 mph 1004.5mb 54f 59f
7:06 23 34 mph 1004.6mb 54f 59f
7:00 29 37 mph 1004.6mb 54f 59f
6:54 22 36 mph 1004.6mb 54f 58f
6:48 18 32 mph 1004.8mb 54f 59f
6:36 17 31 mph 1004.9mb 54f 59f
6:30 16 33 mph 1005.1mb 54f 59f
6:24 22 33 mph 1005.2mb 54f 59f
6:18 24 37 mph 1005.4mb 54f 59f
6:12 22 36 mph 1005.4mb 54f 58f
6:06 17 30 mph 1005.6mb 54f 59f
6:00 23 34 mph 1005.8mb 54f 59f
5:54 17 29 mph 1006mb 54f 59f
5:48 16 36 mph 1006mb 54f 59f
5:36 18 28 mph 1006.2mb 54f 59f
5:30 17 29 mph 1006.3mb 54f 59f
5:24 20 29 mph 1006.4mb 54f 59f
5:18 20 37 mph 1006.5mb 54f 60f
5:12 23 33 mph 1006.4mb 54f 60f
5:06 18 32 mph 1006.5mb 54f 60f
5:00 16 29 mph 1006.7mb 54f 60f
4:54 23 33 mph 1006.8mb 54f 60f
4:48 20 31 mph 1006.8mb 54f 59f
4:36 14 25 mph 1006.9mb 54f 57f
4:30 10 23 mph 1007.3mb 54f 58f
4:24 14 22 mph 1007.3mb 54f 59f
4:18 15 29 mph 1007.4mb 54f 59f
4:12 16 31 mph 1007.4mb 54f 59f
4:06 22 32 mph 1007.4mb 54f 59f
4:00 18 30 mph 1007.4mb 54f 59f
3:54 23 34 mph 1007.5mb 54f 59f
3:48 17 26 mph 1007.5mb 54f 59f
3:36 26 36 mph 1007.6mb 54f 58f
3:30 24 32 mph 1007.8mb 54f 57f
3:24 26 39 mph 1007.8mb 54f 59f
3:18 20 28 mph 1007.6mb 54f 59f
3:12 14 24 mph 1007.4mb 54f 59f
3:06 22 34 mph 1008mb 54f 59f
3:00 16 29 mph 1007.7mb 54f 60f
2:54 22 31 mph 1007.7mb 54f 60f
2:48 17 28 mph 1007.9mb 54f 60f
2:36 20 29 mph 1008.1mb 54f 59f
2:30 20 29 mph 1008.1mb 54f 58f
2:24 17 29 mph 1008.1mb 54f 58f
2:18 21 26 mph 1008.3mb 54f 58f
2:12 20 24 mph 1008.3mb 54f 58f
2:06 16 30 mph 1008.4mb 54f 58f
2:00 13 36 mph 1008.5mb 54f 58f
1:54 23 32 mph 1008.6mb 54f 59f
1:48 21 29 mph 1008.7mb 54f 59f
1:36 18 31 mph 1008.8mb 54f 59f
1:30 20 34 mph 1008.7mb 55f 59f
1:24 15 30 mph 1008.8mb 55f 60f
1:18 18 29 mph 1008.8mb 55f 59f
1:12 16 25 mph 1008.9mb 55f 59f
1:06 16 24 mph 1009mb 55f 58f
1:00 17 31 mph 1009mb 56f 59f
12:54 17 24 mph 1009.1mb 56f 58f
12:48 11 21 mph 1009.2mb 57f 58f
12:36 13 23 mph 1009.3mb 57f 58f
12:30 9 25 mph 1009.4mb 57f 58f
12:24 15 25 mph 1009.4mb 58f 58f
12:18 14 21 mph 1009.6mb 58f 58f
12:12 14 25 mph 1009.5mb 58f 58f
12:06 11 21 mph 1009.5mb 58f 58f
12:00 11 24 mph 1009.5mb 58f 57f
11:54 13 23 mph 1009.4mb 58f 57f
11:48 9 15 mph 1009.4mb 58f 57f
11:36 10 17 mph 1009.5mb 58f 57f
11:30 10 20 mph 1009.5mb 58f 56f
11:24 9 15 mph 1009.4mb 58f 56f
11:18 10 22 mph 1009.5mb 58f 56f
11:12 10 18 mph 1009.4mb 58f 56f
11:06 7 14 mph 1009.4mb 58f 56f
11:00 7 18 mph 1009.6mb 58f 56f
10:54 10 16 mph 1009.6mb 58f 56f
10:48 6 10 mph 1009.6mb 58f 56f
10:36 6 10 mph 1009.6mb 58f 57f
10:30 7 16 mph 1009.5mb 58f 58f
10:24 8 20 mph 1009.4mb 57f 58f
10:18 14 23 mph 1009.2mb 57f 58f
10:12 13 22 mph 1009.3mb 57f 58f
10:06 15 18 mph 1009.3mb 57f 56f
10:00 15 20 mph 1009.2mb 56f 54f
9:54 21 31 mph 1009.4mb 56f 57f
9:48 8 15 mph 1009.1mb 56f 57f
9:36 6 15 mph 1009.2mb 55f 57f
9:30 10 16 mph 1009.2mb 54f 57f
9:24 8 16 mph 1009.2mb 54f 57f
9:18 10 18 mph 1009.2mb 54f 57f
9:12 11 16 mph 1009.2mb 54f 57f
9:06 7 14 mph 1009.1mb 54f 56f
9:00 7 16 mph 1009.1mb 54f 56f
8:54 8 14 mph 1009mb 54f 56f
8:48 8 11 mph 1008.8mb 54f 56f
8:36 9 15 mph 1008.7mb 54f 56f
8:30 7 14 mph 1008.6mb 54f 56f
8:24 5 9 mph 1008.6mb 54f 56f
8:18 6 8 mph 1008.5mb 54f 56f
8:12 6 10 mph 1008.5mb 54f 56f
8:06 6 11 mph 1008.5mb 54f 56f
8:00 6 9 mph 1008.5mb 54f 56f
7:54 5 11 mph 1008.5mb 54f 56f
7:48 7 10 mph 1008.5mb 54f 56f
7:36 6 9 mph 1008.5mb 54f 56f
7:30 3 7 mph 1008.4mb 54f 56f
7:24 3 8 mph 1008.4mb 54f 56f
7:18 3 7 mph 1008.5mb 54f 56f
7:12 5 9 mph 1008.5mb 54f 56f
7:06 5 7 mph 1008.6mb 54f 56f
7:00 5 9 mph 1008.6mb 54f 56f
6:54 5 7 mph 1008.7mb 54f 55f
6:48 3 7 mph 1008.7mb 54f 55f
6:36 5 9 mph 1008.6mb 54f 55f
6:30 3 6 mph 1008.6mb 54f 55f
6:24 5 8 mph 1008.6mb 54f 55f
6:18 3 7 mph 1008.5mb 54f 55f
6:12 5 8 mph 1008.4mb 54f 55f
6:06 5 10 mph 1008.4mb 54f 55f
6:00 6 9 mph 1008.4mb 54f 55f
5:54 6 9 mph 1008.3mb 54f 55f
5:48 6 10 mph 1008.2mb 54f 55f
5:36 6 8 mph 1008.2mb 54f 55f
5:30 6 8 mph 1008.1mb 54f 55f
5:24 7 11 mph 1008.1mb 54f 55f
5:18 5 10 mph 1008.1mb 54f 55f
5:12 5 11 mph 1008.1mb 54f 55f
5:06 5 8 mph 1007.9mb 54f 55f
5:00 6 10 mph 1007.9mb 54f 55f
4:54 5 8 mph 1007.8mb 54f 55f
4:48 3 8 mph 1007.8mb 54f 55f
4:36 6 11 mph 1007.8mb 54f 55f
4:30 7 10 mph 1007.7mb 54f 55f
4:24 5 8 mph 1007.6mb 55f 55f
4:18 7 16 mph 1007.6mb 55f 55f
4:12 8 17 mph 1007.6mb 55f 55f
4:06 6 13 mph 1007.6mb 55f 55f
4:00 6 8 mph 1007.5mb 55f 55f
3:54 5 8 mph 1007.4mb 55f 55f
3:48 6 10 mph 1007.4mb 55f 55f
3:36 2 10 mph 1007.3mb 55f 55f
3:30 7 11 mph 1007.4mb 55f 55f
3:24 9 16 mph 1007.4mb 55f 55f
3:18 7 14 mph 1007.4mb 55f 55f
3:12 10 15 mph 1007.3mb 55f 55f
3:06 5 11 mph 1007.2mb 55f 55f
3:00 6 8 mph 1007.2mb 55f 55f
2:54 3 5 mph 1007.3mb 55f 55f
2:48 3 7 mph 1007.2mb 55f 54f
2:36 3 6 mph 1007.1mb 55f 54f
2:30 5 7 mph 1007mb 55f 54f
2:24 3 6 mph 1007mb 55f 54f
2:18 6 8 mph 1007mb 55f 54f
2:12 3 6 mph 1006.9mb 55f 54f
2:06 3 5 mph 1007mb 55f 54f
2:00 3 6 mph 1006.9mb 55f 55f
1:54 5 6 mph 1006.9mb 55f 55f
1:48 3 6 mph 1007mb 55f 55f
1:36 5 8 mph 1006.9mb 55f 55f
1:30 5 8 mph 1006.9mb 55f 55f
1:24 5 8 mph 1006.9mb 55f 55f
1:18 3 7 mph 1007mb 55f 55f
1:12 6 9 mph 1006.9mb 55f 55f
1:06 5 9 mph 1006.9mb 55f 55f
1:00 6 10 mph 1006.8mb 56f 55f
12:54 5 9 mph 1006.9mb 56f 55f
12:48 6 8 mph 1006.9mb 56f 55f
12:36 7 11 mph 1006.9mb 56f 55f
12:30 7 13 mph 1006.7mb 56f 55f
12:24 8 11 mph 1006.5mb 57f 55f
12:18 5 11 mph 1006.7mb 57f 55f
12:12 6 8 mph 1006.5mb 57f 55f
12:06 6 14 mph 1006.4mb 57f 55f
12:00 6 9 mph 1006.4mb 57f 55f
lun. 10/20 11:54 5 10 mph 1006.4mb 57f 55f
11:48 6 13 mph 1006.4mb 57f 55f
11:36 7 14 mph 1006.3mb 58f 55f
11:30 5 11 mph 1006.3mb 58f 55f
11:24 7 15 mph 1006.2mb 58f 55f
11:18 8 21 mph 1006.2mb 58f 56f
11:12 6 11 mph 1006.2mb 58f 56f
11:06 5 10 mph 1006.3mb 58f 56f
11:00 7 11 mph 1006.3mb 58f 56f
10:54 7 13 mph 1006.1mb 58f 56f
10:48 8 14 mph 1006.1mb 58f 56f
10:36 8 20 mph 1006mb 58f 56f
10:30 14 21 mph 1006mb 57f 58f
10:24 7 9 mph 1006.1mb 57f 58f
10:18 6 10 mph 1006mb 57f 58f
10:12 6 15 mph 1006mb 57f 58f
10:06 9 15 mph 1005.9mb 57f 58f
10:00 6 11 mph 1006mb 57f 58f
9:54 8 15 mph 1005.9mb 57f 58f
9:48 11 15 mph 1005.9mb 57f 58f
9:36 15 18 mph 1005.8mb 56f 58f
9:30 14 17 mph 1005.8mb 56f 59f
9:24 10 14 mph 1005.7mb 56f 59f
9:18 10 14 mph 1005.6mb 56f 59f
9:12 9 14 mph 1005.6mb 55f 59f
9:06 9 11 mph 1005.5mb 55f 59f
9:00 9 13 mph 1005.6mb 55f 58f
8:54 8 10 mph 1005.6mb 55f 57f
8:48 2 5 mph 1005.7mb 55f 56f
8:36 3 5 mph 1005.7mb 55f 56f
8:30 3 10 mph 1005.7mb 55f 56f
8:24 9 16 mph 1005.7mb 55f 56f
8:18 17 24 mph 1005.8mb 55f 59f
8:12 7 11 mph 1005.7mb 55f 59f
8:06 6 13 mph 1005.7mb 55f 59f
8:00 7 13 mph 1005.7mb 55f 59f
7:54 8 11 mph 1005.7mb 55f 58f
7:48 5 7 mph 1005.8mb 55f 58f
5:36 8 17 mph 1005.6mb 55f 56f
5:30 8 13 mph 1005.6mb 56f 57f
5:24 8 11 mph 1005.6mb 56f 56f
5:18 6 11 mph 1005.5mb 56f 57f
5:12 8 13 mph 1005.6mb 56f 57f
5:06 3 13 mph 1005.6mb 56f 58f
5:00 9 14 mph 1005.7mb 56f 57f
4:54 6 15 mph 1005.7mb 56f 58f
4:48 5 11 mph 1005.8mb 56f 58f
4:36 10 18 mph 1005.8mb 56f 58f
4:30 13 21 mph 1005.8mb 56f 59f
4:24 14 20 mph 1005.7mb 56f 60f
4:18 9 17 mph 1005.7mb 56f 60f
4:12 10 17 mph 1005.7mb 56f 59f
4:06 10 16 mph 1005.7mb 56f 59f
4:00 8 18 mph 1005.8mb 56f 59f
3:54 13 22 mph 1005.8mb 56f 59f
3:48 10 15 mph 1005.7mb 56f 59f
3:36 11 28 mph 1005.7mb 56f 60f
3:30 11 17 mph 1005.7mb 56f 59f
3:24 8 20 mph 1005.7mb 56f 59f
3:18 11 20 mph 1005.7mb 56f 59f
3:12 7 14 mph 1005.7mb 56f 59f
3:06 9 14 mph 1005.7mb 56f 58f
3:00 7 11 mph 1005.7mb 56f 57f
2:54 3 10 mph 1005.6mb 56f 56f
2:48 6 11 mph 1005.6mb 56f 57f
2:36 7 14 mph 1005.6mb 56f 58f
2:30 9 16 mph 1005.6mb 56f 58f
2:24 7 13 mph 1005.7mb 56f 58f
2:18 6 14 mph 1005.6mb 56f 58f
2:12 8 16 mph 1005.7mb 56f 59f
2:06 9 16 mph 1005.7mb 56f 59f
2:00 8 16 mph 1005.7mb 56f 59f
1:54 11 18 mph 1005.7mb 56f 59f
1:48 11 22 mph 1005.7mb 56f 59f
1:36 14 21 mph 1005.7mb 56f 59f
1:30 13 20 mph 1005.7mb 56f 59f
1:24 8 14 mph 1005.7mb 56f 59f
1:18 8 15 mph 1005.7mb 56f 59f
1:12 13 24 mph 1005.6mb 56f 60f
1:06 9 20 mph 1005.6mb 56f 60f
1:00 14 18 mph 1005.6mb 56f 60f
12:54 9 17 mph 1005.5mb 56f 60f
12:48 7 14 mph 1005.6mb 56f 60f
12:36 11 23 mph 1005.6mb 57f 60f
12:30 10 16 mph 1005.6mb 57f 60f
12:24 8 15 mph 1005.6mb 57f 60f
12:18 7 17 mph 1005.6mb 58f 59f
12:12 10 16 mph 1005.6mb 58f 59f
12:06 10 17 mph 1005.6mb 58f 59f
12:00 10 18 mph 1005.7mb 58f 59f
11:54 8 16 mph 1005.7mb 58f 59f
11:48 11 17 mph 1005.7mb 58f 59f
11:36 9 16 mph 1005.6mb 58f 59f
11:30 9 15 mph 1005.5mb 58f 58f
11:24 8 14 mph 1005.5mb 58f 58f
11:18 9 18 mph 1005.5mb 58f 58f
11:12 10 15 mph 1005.4mb 58f 58f
11:06 10 16 mph 1005.5mb 58f 58f
11:00 13 18 mph 1005.5mb 58f 58f
10:54 8 13 mph 1005.5mb 58f 58f
10:48 7 13 mph 1005.5mb 58f 58f
10:36 6 11 mph 1005.6mb 58f 57f
10:30 8 15 mph 1005.6mb 58f 58f
10:24 10 17 mph 1005.5mb 58f 58f
10:18 10 18 mph 1005.4mb 58f 57f
10:12 6 13 mph 1005.4mb 58f 57f
10:06 8 13 mph 1005.3mb 58f 57f
10:00 8 13 mph 1005.3mb 58f 57f
9:54 7 13 mph 1005.3mb 58f 57f
9:48 8 11 mph 1005.3mb 58f 57f
9:36 7 14 mph 1005.2mb 58f 56f
9:30 6 9 mph 1005.2mb 58f 55f
9:24 5 7 mph 1005.1mb 58f 55f
9:18 3 7 mph 1005.1mb 58f 55f
9:12 6 9 mph 1005mb 58f 55f
9:06 8 10 mph 1005mb 57f 55f
9:00 5 7 mph 1005mb 57f 55f
8:54 5 7 mph 1004.9mb 57f 55f
8:48 5 6 mph 1004.9mb 57f 55f
8:36 3 8 mph 1004.7mb 56f 55f
8:30 3 6 mph 1004.7mb 56f 55f
8:24 3 6 mph 1004.7mb 56f 55f
8:18 3 6 mph 1004.5mb 56f 55f
8:12 6 8 mph 1004.4mb 56f 55f
8:06 3 8 mph 1004.2mb 56f 55f
8:00 5 7 mph 1004.3mb 55f 55f
7:54 3 6 mph 1004.2mb 55f 55f
7:48 3 5 mph 1004.2mb 55f 55f
7:36 3 9 mph 1003.9mb 55f 55f
7:30 5 8 mph 1003.8mb 55f 55f
7:24 5 7 mph 1003.8mb 55f 55f
7:18 5 7 mph 1003.9mb 55f 55f
7:12 3 6 mph 1004mb 55f 55f
7:06 5 6 mph 1004.1mb 55f 55f
7:00 5 6 mph 1004mb 55f 55f
6:54 3 6 mph 1003.9mb 55f 55f
6:48 5 8 mph 1004mb 55f 56f
6:36 9 14 mph 1004.1mb 55f 56f
6:30 13 21 mph 1004.1mb 55f 56f
6:24 14 18 mph 1004mb 55f 57f
6:18 3 8 mph 1003.9mb 55f 57f
6:12 9 14 mph 1003.9mb 55f 57f
6:06 8 15 mph 1003.9mb 55f 57f
6:00 7 13 mph 1003.8mb 55f 57f
5:54 7 15 mph 1003.8mb 55f 57f
5:48 13 17 mph 1003.9mb 55f 57f
5:36 9 13 mph 1003.7mb 56f 57f
5:30 9 16 mph 1003.7mb 56f 58f
5:24 13 17 mph 1003.7mb 56f 57f
5:18 10 18 mph 1003.6mb 56f 57f
5:12 8 13 mph 1003.6mb 56f 57f
5:06 10 15 mph 1003.7mb 56f 57f
5:00 10 20 mph 1003.6mb 56f 57f
4:54 10 16 mph 1003.7mb 56f 57f
4:48 8 18 mph 1003.7mb 56f 57f
4:36 8 18 mph 1003.8mb 56f 56f
4:30 11 21 mph 1003.8mb 56f 56f
4:24 15 20 mph 1003.7mb 56f 56f
4:18 9 18 mph 1003.7mb 56f 56f
4:12 10 22 mph 1003.7mb 56f 56f
4:06 11 18 mph 1003.7mb 56f 56f
4:00 9 20 mph 1003.7mb 56f 56f
3:54 10 20 mph 1003.8mb 56f 56f
3:48 13 23 mph 1003.8mb 56f 56f
3:36 6 18 mph 1003.8mb 56f 56f
3:30 10 18 mph 1003.7mb 56f 57f
3:24 11 22 mph 1003.7mb 56f 57f
3:18 13 24 mph 1003.8mb 56f 57f
3:12 10 20 mph 1003.8mb 56f 57f
3:06 9 22 mph 1003.8mb 56f 57f
3:00 13 24 mph 1003.8mb 56f 57f
2:54 8 17 mph 1003.8mb 56f 57f
2:48 8 17 mph 1003.8mb 56f 57f
2:36 9 20 mph 1003.8mb 56f 57f
2:30 8 20 mph 1003.8mb 56f 57f
2:24 11 21 mph 1003.8mb 57f 57f
2:18 10 17 mph 1003.9mb 57f 57f
2:12 11 18 mph 1003.8mb 57f 57f
2:06 7 13 mph 1003.6mb 57f 57f
2:00 6 10 mph 1003.8mb 57f 57f
1:54 8 16 mph 1003.7mb 57f 57f
1:48 9 18 mph 1003.7mb 57f 58f
1:36 11 16 mph 1003.6mb 58f 58f
1:30 11 21 mph 1003.6mb 58f 58f
1:24 9 20 mph 1003.6mb 58f 58f
1:18 9 18 mph 1003.7mb 58f 58f
1:12 11 18 mph 1003.6mb 58f 58f
1:06 11 20 mph 1003.6mb 58f 58f
1:00 16 24 mph 1003.6mb 58f 58f
12:54 9 22 mph 1003.6mb 58f 58f
12:48 10 20 mph 1003.4mb 58f 58f
12:36 8 20 mph 1003.2mb 58f 58f
12:30 10 18 mph 1003.5mb 58f 58f
12:24 14 25 mph 1003.3mb 58f 58f
12:18 13 20 mph 1003.4mb 58f 58f
12:12 13 21 mph 1003.4mb 58f 57f
12:06 9 15 mph 1003.1mb 58f 58f
12:00 13 20 mph 1003mb 58f 58f
dim. 10/19 11:54 9 18 mph 1003.2mb 58f 58f
11:48 11 18 mph 1003.3mb 58f 58f
11:36 14 21 mph 1003.6mb 58f 57f
11:30 14 22 mph 1003.3mb 58f 57f
11:24 18 26 mph 1003.6mb 58f 57f
11:18 21 25 mph 1003.6mb 58f 57f
11:12 18 25 mph 1003.6mb 58f 57f
11:06 14 21 mph 1003.3mb 58f 58f
11:00 14 20 mph 1003.5mb 58f 58f
10:54 10 15 mph 1003.4mb 58f 57f
10:48 6 9 mph 1003.2mb 58f 57f
10:36 7 10 mph 1003.4mb 58f 57f
10:30 8 14 mph 1003.6mb 58f 57f
10:24 9 16 mph 1003.6mb 58f 57f
10:18 7 14 mph 1003.7mb 58f 57f
10:12 9 15 mph 1003.6mb 58f 57f
10:06 10 14 mph 1003.5mb 58f 57f
10:00 9 15 mph 1003.5mb 58f 57f
9:36 6 14 mph 1003.4mb 58f 56f
9:30 8 13 mph 1003.3mb 58f 56f
9:24 5 9 mph 1003.3mb 58f 56f
9:18 6 13 mph 1003.4mb 58f 56f
9:12 10 15 mph 1003.4mb 58f 56f
9:06 5 10 mph 1003.7mb 58f 56f
9:00 5 11 mph 1003.7mb 58f 56f
8:54 5 9 mph 1003.6mb 58f 56f
8:48 8 11 mph 1003.6mb 58f 56f
8:30 6 13 mph 1003.6mb 58f 56f
8:24 8 16 mph 1003.5mb 58f 56f
8:18 8 16 mph 1003.4mb 58f 56f
8:12 5 13 mph 1003.3mb 58f 56f
8:06 7 10 mph 1003.5mb 58f 56f
8:00 6 16 mph 1003.4mb 58f 56f
7:54 8 14 mph 1003.8mb 58f 56f
7:48 9 14 mph 1003.9mb 58f 56f
7:36 7 14 mph 1003.6mb 58f 56f
7:30 9 14 mph 1003.5mb 58f 56f
7:24 7 15 mph 1003.7mb 58f 56f
7:18 8 11 mph 1003.7mb 58f 56f
7:12 7 13 mph 1003.8mb 58f 56f
7:06 6 9 mph 1003.8mb 58f 56f
7:00 7 14 mph 1003.7mb 58f 56f
6:54 7 13 mph 1003.6mb 58f 56f
6:48 7 11 mph 1003.8mb 58f 56f
6:36 7 10 mph 1003.9mb 58f 56f
6:30 6 10 mph 1003.7mb 58f 56f
6:24 5 10 mph 1003.6mb 58f 56f
6:18 8 11 mph 1003.6mb 58f 56f
6:12 6 10 mph 1003.8mb 58f 56f
6:06 7 9 mph 1003.8mb 58f 56f
6:00 6 9 mph 1003.6mb 58f 56f
5:54 6 11 mph 1003.8mb 58f 56f
5:48 8 14 mph 1004mb 58f 56f
5:36 2 5 mph 1003.8mb 57f 56f
5:30 5 9 mph 1003.8mb 57f 56f
5:24 6 10 mph 1003.8mb 57f 56f
5:18 7 11 mph 1004mb 57f 55f
5:12 5 11 mph 1003.8mb 57f 55f
5:06 7 13 mph 1003.9mb 57f 56f
5:00 10 15 mph 1004.2mb 57f 56f
4:54 8 11 mph 1004mb 57f 56f
4:48 7 15 mph 1003.8mb 57f 56f
4:36 10 16 mph 1003.8mb 57f 56f
4:30 10 18 mph 1003.9mb 57f 58f
4:24 13 17 mph 1003.8mb 57f 58f
4:18 13 20 mph 1003.9mb 57f 57f
4:12 14 22 mph 1003.9mb 57f 58f
4:06 16 31 mph 1003.8mb 57f 59f
4:00 23 36 mph 1003.1mb 57f 59f
3:54 20 32 mph 1003.2mb 57f 59f
3:48 18 30 mph 1003.1mb 57f 59f
3:36 22 33 mph 1003.2mb 57f 59f
3:30 23 40 mph 1003.2mb 58f 59f
3:24 22 33 mph 1003.2mb 58f 59f
3:18 22 45 mph 1003.2mb 58f 59f
3:12 20 32 mph 1003.3mb 58f 59f
3:06 24 44 mph 1003.2mb 58f 59f
3:00 21 37 mph 1003.3mb 58f 59f
2:54 22 39 mph 1003.2mb 58f 59f
2:48 23 37 mph 1003.3mb 58f 59f
2:36 20 34 mph 1003.3mb 58f 60f
2:30 23 40 mph 1003.3mb 58f 60f
2:24 17 37 mph 1003.3mb 58f 60f
2:18 21 37 mph 1003.3mb 58f 60f
2:12 22 32 mph 1003.3mb 58f 61f
2:06 25 39 mph 1003.3mb 58f 62f
2:00 24 36 mph 1003.3mb 58f 63f
1:54 20 34 mph 1003.1mb 58f 63f
1:48 18 33 mph 1003mb 58f 64f
1:36 22 40 mph 1003mb 58f 64f
1:30 23 33 mph 1003mb 58f 64f
1:24 23 39 mph 1003.1mb 58f 64f
1:18 17 39 mph 1003.2mb 58f 64f
1:12 22 44 mph 1003.3mb 58f 64f
1:06 23 36 mph 1003.4mb 58f 64f
1:00 17 39 mph 1003.4mb 58f 64f
12:54 25 37 mph 1003.5mb 58f 64f
12:48 21 37 mph 1003.6mb 58f 64f
12:36 21 36 mph 1003.7mb 58f 63f
12:30 24 37 mph 1003.8mb 58f 64f
12:24 21 37 mph 1003.7mb 58f 64f
12:18 22 39 mph 1003.8mb 58f 64f
12:12 26 39 mph 1003.8mb 58f 63f
12:06 21 37 mph 1003.8mb 58f 63f
12:00 23 32 mph 1003.8mb 58f 63f